sensor_id;sensor_type;location;lat;lon;timestamp;P1;durP1;ratioP1;P2;durP2;ratioP2
45338;SDS011;31071;51.478;5.710;2024-02-14T00:00:24;8.70;;;4.50;;
45338;SDS011;31071;51.478;5.710;2024-02-14T00:02:50;9.30;;;5.00;;
45338;SDS011;31071;51.478;5.710;2024-02-14T00:05:16;8.25;;;4.82;;
45338;SDS011;31071;51.478;5.710;2024-02-14T00:07:42;9.93;;;4.85;;
45338;SDS011;31071;51.478;5.710;2024-02-14T00:10:11;9.88;;;4.60;;
45338;SDS011;31071;51.478;5.710;2024-02-14T00:12:37;6.95;;;4.40;;
45338;SDS011;31071;51.478;5.710;2024-02-14T00:15:05;7.65;;;4.65;;
45338;SDS011;31071;51.478;5.710;2024-02-14T00:17:38;7.78;;;4.40;;
45338;SDS011;31071;51.478;5.710;2024-02-14T00:20:04;5.68;;;4.35;;
45338;SDS011;31071;51.478;5.710;2024-02-14T00:22:30;6.38;;;5.00;;
45338;SDS011;31071;51.478;5.710;2024-02-14T00:24:57;9.57;;;5.03;;
45338;SDS011;31071;51.478;5.710;2024-02-14T00:27:22;7.97;;;5.30;;
45338;SDS011;31071;51.478;5.710;2024-02-14T00:29:49;6.63;;;4.90;;
45338;SDS011;31071;51.478;5.710;2024-02-14T00:32:15;8.77;;;5.15;;
45338;SDS011;31071;51.478;5.710;2024-02-14T00:34:41;5.07;;;4.53;;
45338;SDS011;31071;51.478;5.710;2024-02-14T00:37:07;6.05;;;4.43;;
45338;SDS011;31071;51.478;5.710;2024-02-14T00:39:33;5.57;;;4.93;;
45338;SDS011;31071;51.478;5.710;2024-02-14T00:41:59;8.07;;;5.30;;
45338;SDS011;31071;51.478;5.710;2024-02-14T00:44:25;5.90;;;4.50;;
45338;SDS011;31071;51.478;5.710;2024-02-14T00:46:58;5.70;;;4.70;;
45338;SDS011;31071;51.478;5.710;2024-02-14T00:49:27;5.18;;;4.68;;
45338;SDS011;31071;51.478;5.710;2024-02-14T00:51:53;6.40;;;4.97;;
45338;SDS011;31071;51.478;5.710;2024-02-14T00:54:20;10.32;;;4.93;;
45338;SDS011;31071;51.478;5.710;2024-02-14T00:56:46;4.57;;;4.10;;
45338;SDS011;31071;51.478;5.710;2024-02-14T00:59:14;7.53;;;4.60;;
45338;SDS011;31071;51.478;5.710;2024-02-14T01:01:41;8.35;;;5.07;;
45338;SDS011;31071;51.478;5.710;2024-02-14T01:04:10;8.15;;;5.20;;
45338;SDS011;31071;51.478;5.710;2024-02-14T01:06:36;8.00;;;4.70;;
45338;SDS011;31071;51.478;5.710;2024-02-14T01:09:02;8.65;;;4.78;;
45338;SDS011;31071;51.478;5.710;2024-02-14T01:11:28;8.80;;;4.80;;
45338;SDS011;31071;51.478;5.710;2024-02-14T01:13:54;6.10;;;4.57;;
45338;SDS011;31071;51.478;5.710;2024-02-14T01:16:20;7.20;;;4.75;;
45338;SDS011;31071;51.478;5.710;2024-02-14T01:18:47;5.50;;;4.38;;
45338;SDS011;31071;51.478;5.710;2024-02-14T01:21:13;6.60;;;4.65;;
45338;SDS011;31071;51.478;5.710;2024-02-14T01:23:38;5.22;;;4.15;;
45338;SDS011;31071;51.478;5.710;2024-02-14T01:26:04;6.10;;;4.90;;
45338;SDS011;31071;51.478;5.710;2024-02-14T01:28:30;9.15;;;4.78;;
45338;SDS011;31071;51.478;5.710;2024-02-14T01:30:56;7.93;;;4.45;;
45338;SDS011;31071;51.478;5.710;2024-02-14T01:33:23;8.32;;;5.00;;
45338;SDS011;31071;51.478;5.710;2024-02-14T01:35:49;9.40;;;5.00;;
45338;SDS011;31071;51.478;5.710;2024-02-14T01:38:15;8.80;;;4.93;;
45338;SDS011;31071;51.478;5.710;2024-02-14T01:40:43;8.05;;;4.97;;
45338;SDS011;31071;51.478;5.710;2024-02-14T01:43:10;8.30;;;4.65;;
45338;SDS011;31071;51.478;5.710;2024-02-14T01:45:36;7.50;;;5.10;;
45338;SDS011;31071;51.478;5.710;2024-02-14T01:48:03;7.30;;;4.88;;
45338;SDS011;31071;51.478;5.710;2024-02-14T01:50:33;9.35;;;4.50;;
45338;SDS011;31071;51.478;5.710;2024-02-14T01:53:00;6.50;;;4.57;;
45338;SDS011;31071;51.478;5.710;2024-02-14T01:55:26;6.40;;;4.45;;
45338;SDS011;31071;51.478;5.710;2024-02-14T01:57:53;7.97;;;4.60;;
45338;SDS011;31071;51.478;5.710;2024-02-14T02:00:19;7.82;;;4.78;;
45338;SDS011;31071;51.478;5.710;2024-02-14T02:02:45;6.65;;;4.20;;
45338;SDS011;31071;51.478;5.710;2024-02-14T02:05:12;6.85;;;4.30;;
45338;SDS011;31071;51.478;5.710;2024-02-14T02:07:41;6.70;;;4.65;;
45338;SDS011;31071;51.478;5.710;2024-02-14T02:10:13;6.05;;;4.18;;
45338;SDS011;31071;51.478;5.710;2024-02-14T02:12:39;7.53;;;4.32;;
45338;SDS011;31071;51.478;5.710;2024-02-14T02:15:06;10.38;;;4.85;;
45338;SDS011;31071;51.478;5.710;2024-02-14T02:17:35;6.13;;;4.07;;
45338;SDS011;31071;51.478;5.710;2024-02-14T02:20:04;6.55;;;4.25;;
45338;SDS011;31071;51.478;5.710;2024-02-14T02:22:32;8.82;;;4.63;;
45338;SDS011;31071;51.478;5.710;2024-02-14T02:25:02;8.90;;;4.43;;
45338;SDS011;31071;51.478;5.710;2024-02-14T02:27:32;10.70;;;5.13;;
45338;SDS011;31071;51.478;5.710;2024-02-14T02:30:00;7.32;;;4.60;;
45338;SDS011;31071;51.478;5.710;2024-02-14T02:32:26;10.88;;;5.00;;
45338;SDS011;31071;51.478;5.710;2024-02-14T02:34:52;8.38;;;5.32;;
45338;SDS011;31071;51.478;5.710;2024-02-14T02:37:18;9.95;;;5.15;;
45338;SDS011;31071;51.478;5.710;2024-02-14T02:39:44;8.60;;;5.15;;
45338;SDS011;31071;51.478;5.710;2024-02-14T02:42:10;7.05;;;4.57;;
45338;SDS011;31071;51.478;5.710;2024-02-14T02:44:38;8.98;;;5.55;;
45338;SDS011;31071;51.478;5.710;2024-02-14T02:47:04;8.43;;;5.38;;
45338;SDS011;31071;51.478;5.710;2024-02-14T02:49:33;11.32;;;5.70;;
45338;SDS011;31071;51.478;5.710;2024-02-14T02:52:01;8.35;;;5.65;;
45338;SDS011;31071;51.478;5.710;2024-02-14T02:54:27;8.55;;;5.82;;
45338;SDS011;31071;51.478;5.710;2024-02-14T02:56:54;11.55;;;5.65;;
45338;SDS011;31071;51.478;5.710;2024-02-14T02:59:19;12.48;;;6.65;;
45338;SDS011;31071;51.478;5.710;2024-02-14T03:01:47;8.60;;;6.10;;
45338;SDS011;31071;51.478;5.710;2024-02-14T03:04:14;12.23;;;6.30;;
45338;SDS011;31071;51.478;5.710;2024-02-14T03:06:40;10.30;;;6.43;;
45338;SDS011;31071;51.478;5.710;2024-02-14T03:09:08;11.68;;;6.10;;
45338;SDS011;31071;51.478;5.710;2024-02-14T03:11:34;8.85;;;6.40;;
45338;SDS011;31071;51.478;5.710;2024-02-14T03:14:02;11.07;;;6.68;;
45338;SDS011;31071;51.478;5.710;2024-02-14T03:16:28;12.25;;;6.50;;
45338;SDS011;31071;51.478;5.710;2024-02-14T03:18:55;12.80;;;6.05;;
45338;SDS011;31071;51.478;5.710;2024-02-14T03:21:30;9.65;;;6.55;;
45338;SDS011;31071;51.478;5.710;2024-02-14T03:24:01;10.32;;;6.78;;
45338;SDS011;31071;51.478;5.710;2024-02-14T03:26:30;9.23;;;6.38;;
45338;SDS011;31071;51.478;5.710;2024-02-14T03:28:58;10.77;;;6.50;;
45338;SDS011;31071;51.478;5.710;2024-02-14T03:33:57;11.68;;;6.38;;
45338;SDS011;31071;51.478;5.710;2024-02-14T03:36:23;9.80;;;6.57;;
45338;SDS011;31071;51.478;5.710;2024-02-14T03:38:52;8.23;;;6.55;;
45338;SDS011;31071;51.478;5.710;2024-02-14T03:41:17;12.75;;;6.35;;
45338;SDS011;31071;51.478;5.710;2024-02-14T03:43:43;9.52;;;6.72;;
45338;SDS011;31071;51.478;5.710;2024-02-14T03:46:09;10.63;;;6.32;;
45338;SDS011;31071;51.478;5.710;2024-02-14T03:48:38;10.50;;;6.25;;
45338;SDS011;31071;51.478;5.710;2024-02-14T03:51:05;11.13;;;5.82;;
45338;SDS011;31071;51.478;5.710;2024-02-14T03:53:31;8.63;;;5.85;;
45338;SDS011;31071;51.478;5.710;2024-02-14T03:55:58;9.57;;;6.63;;
45338;SDS011;31071;51.478;5.710;2024-02-14T03:58:24;9.38;;;6.50;;
45338;SDS011;31071;51.478;5.710;2024-02-14T04:00:50;8.32;;;6.57;;
45338;SDS011;31071;51.478;5.710;2024-02-14T04:03:17;13.45;;;7.35;;
45338;SDS011;31071;51.478;5.710;2024-02-14T04:05:43;9.60;;;7.47;;
45338;SDS011;31071;51.478;5.710;2024-02-14T04:08:10;10.93;;;7.07;;
45338;SDS011;31071;51.478;5.710;2024-02-14T04:10:36;9.60;;;6.70;;
45338;SDS011;31071;51.478;5.710;2024-02-14T04:13:05;9.73;;;7.22;;
45338;SDS011;31071;51.478;5.710;2024-02-14T04:15:31;10.30;;;7.25;;
45338;SDS011;31071;51.478;5.710;2024-02-14T04:18:19;9.18;;;6.55;;
45338;SDS011;31071;51.478;5.710;2024-02-14T04:20:47;11.32;;;6.50;;
45338;SDS011;31071;51.478;5.710;2024-02-14T04:23:13;10.60;;;6.53;;
45338;SDS011;31071;51.478;5.710;2024-02-14T04:25:39;11.48;;;6.55;;
45338;SDS011;31071;51.478;5.710;2024-02-14T04:28:05;8.43;;;6.68;;
45338;SDS011;31071;51.478;5.710;2024-02-14T04:30:31;10.30;;;7.30;;
45338;SDS011;31071;51.478;5.710;2024-02-14T04:33:05;9.05;;;6.88;;
45338;SDS011;31071;51.478;5.710;2024-02-14T04:35:31;10.40;;;7.05;;
45338;SDS011;31071;51.478;5.710;2024-02-14T04:37:57;9.07;;;7.30;;
45338;SDS011;31071;51.478;5.710;2024-02-14T04:40:23;8.85;;;6.88;;
45338;SDS011;31071;51.478;5.710;2024-02-14T04:42:49;9.93;;;7.20;;
45338;SDS011;31071;51.478;5.710;2024-02-14T04:45:15;12.45;;;7.10;;
45338;SDS011;31071;51.478;5.710;2024-02-14T04:47:41;8.32;;;6.80;;
45338;SDS011;31071;51.478;5.710;2024-02-14T04:50:07;8.23;;;7.05;;
45338;SDS011;31071;51.478;5.710;2024-02-14T04:52:33;10.10;;;6.78;;
45338;SDS011;31071;51.478;5.710;2024-02-14T04:54:59;7.85;;;6.32;;
45338;SDS011;31071;51.478;5.710;2024-02-14T04:57:25;8.30;;;6.68;;
45338;SDS011;31071;51.478;5.710;2024-02-14T04:59:51;8.57;;;6.70;;
45338;SDS011;31071;51.478;5.710;2024-02-14T05:04:54;8.20;;;7.13;;
45338;SDS011;31071;51.478;5.710;2024-02-14T05:07:20;8.50;;;6.85;;
45338;SDS011;31071;51.478;5.710;2024-02-14T05:09:46;11.57;;;7.60;;
45338;SDS011;31071;51.478;5.710;2024-02-14T05:12:15;9.95;;;8.15;;
45338;SDS011;31071;51.478;5.710;2024-02-14T05:14:41;10.38;;;8.07;;
45338;SDS011;31071;51.478;5.710;2024-02-14T05:17:07;11.20;;;8.38;;
45338;SDS011;31071;51.478;5.710;2024-02-14T05:19:33;13.07;;;9.13;;
45338;SDS011;31071;51.478;5.710;2024-02-14T05:21:59;12.18;;;9.32;;
45338;SDS011;31071;51.478;5.710;2024-02-14T05:24:25;13.30;;;9.77;;
45338;SDS011;31071;51.478;5.710;2024-02-14T05:26:55;16.52;;;10.38;;
45338;SDS011;31071;51.478;5.710;2024-02-14T05:29:21;15.57;;;11.65;;
45338;SDS011;31071;51.478;5.710;2024-02-14T05:31:47;17.35;;;11.45;;
45338;SDS011;31071;51.478;5.710;2024-02-14T05:34:14;17.58;;;11.82;;
45338;SDS011;31071;51.478;5.710;2024-02-14T05:36:39;16.85;;;11.55;;
45338;SDS011;31071;51.478;5.710;2024-02-14T05:39:07;16.70;;;11.77;;
45338;SDS011;31071;51.478;5.710;2024-02-14T05:41:33;17.25;;;12.30;;
45338;SDS011;31071;51.478;5.710;2024-02-14T05:44:00;18.75;;;12.60;;
45338;SDS011;31071;51.478;5.710;2024-02-14T05:46:27;15.60;;;12.15;;
45338;SDS011;31071;51.478;5.710;2024-02-14T05:48:53;18.00;;;11.55;;
45338;SDS011;31071;51.478;5.710;2024-02-14T05:51:19;17.70;;;12.02;;
45338;SDS011;31071;51.478;5.710;2024-02-14T05:53:45;18.38;;;14.20;;
45338;SDS011;31071;51.478;5.710;2024-02-14T05:56:11;17.02;;;12.00;;
45338;SDS011;31071;51.478;5.710;2024-02-14T05:58:37;16.15;;;12.25;;
45338;SDS011;31071;51.478;5.710;2024-02-14T06:01:02;20.83;;;12.98;;
45338;SDS011;31071;51.478;5.710;2024-02-14T06:03:28;20.85;;;13.43;;
45338;SDS011;31071;51.478;5.710;2024-02-14T06:05:54;18.08;;;12.57;;
45338;SDS011;31071;51.478;5.710;2024-02-14T06:08:20;20.23;;;13.30;;
45338;SDS011;31071;51.478;5.710;2024-02-14T06:10:48;15.60;;;12.95;;
45338;SDS011;31071;51.478;5.710;2024-02-14T06:13:17;18.10;;;12.90;;
45338;SDS011;31071;51.478;5.710;2024-02-14T06:15:42;19.27;;;12.48;;
45338;SDS011;31071;51.478;5.710;2024-02-14T06:18:11;23.15;;;13.95;;
45338;SDS011;31071;51.478;5.710;2024-02-14T06:20:37;19.63;;;14.18;;
45338;SDS011;31071;51.478;5.710;2024-02-14T06:23:11;19.65;;;13.52;;
45338;SDS011;31071;51.478;5.710;2024-02-14T06:25:37;22.85;;;14.80;;
45338;SDS011;31071;51.478;5.710;2024-02-14T06:28:36;23.08;;;14.00;;
45338;SDS011;31071;51.478;5.710;2024-02-14T06:31:01;21.58;;;14.60;;
45338;SDS011;31071;51.478;5.710;2024-02-14T06:33:27;21.77;;;15.15;;
45338;SDS011;31071;51.478;5.710;2024-02-14T06:35:53;23.13;;;16.75;;
45338;SDS011;31071;51.478;5.710;2024-02-14T06:38:19;25.05;;;16.65;;
45338;SDS011;31071;51.478;5.710;2024-02-14T06:40:45;26.55;;;16.98;;
45338;SDS011;31071;51.478;5.710;2024-02-14T06:43:11;27.45;;;18.00;;
45338;SDS011;31071;51.478;5.710;2024-02-14T06:45:37;25.70;;;18.05;;
45338;SDS011;31071;51.478;5.710;2024-02-14T06:48:04;30.40;;;19.52;;
45338;SDS011;31071;51.478;5.710;2024-02-14T06:50:30;26.85;;;18.60;;
45338;SDS011;31071;51.478;5.710;2024-02-14T06:52:56;28.17;;;18.90;;
45338;SDS011;31071;51.478;5.710;2024-02-14T06:55:26;25.90;;;17.00;;
45338;SDS011;31071;51.478;5.710;2024-02-14T06:57:52;25.58;;;16.48;;
45338;SDS011;31071;51.478;5.710;2024-02-14T07:00:19;22.60;;;16.50;;
45338;SDS011;31071;51.478;5.710;2024-02-14T07:02:45;25.45;;;16.77;;
45338;SDS011;31071;51.478;5.710;2024-02-14T07:05:15;24.42;;;17.17;;
45338;SDS011;31071;51.478;5.710;2024-02-14T07:07:41;21.10;;;15.30;;
45338;SDS011;31071;51.478;5.710;2024-02-14T07:10:07;20.60;;;15.48;;
45338;SDS011;31071;51.478;5.710;2024-02-14T07:12:36;28.58;;;14.93;;
45338;SDS011;31071;51.478;5.710;2024-02-14T07:15:08;20.40;;;14.10;;
45338;SDS011;31071;51.478;5.710;2024-02-14T07:17:34;20.45;;;14.30;;
45338;SDS011;31071;51.478;5.710;2024-02-14T07:20:00;18.42;;;13.32;;
45338;SDS011;31071;51.478;5.710;2024-02-14T07:22:39;22.02;;;13.40;;
45338;SDS011;31071;51.478;5.710;2024-02-14T07:25:13;22.20;;;14.30;;
45338;SDS011;31071;51.478;5.710;2024-02-14T07:27:41;23.95;;;13.73;;
45338;SDS011;31071;51.478;5.710;2024-02-14T07:30:07;23.35;;;14.95;;
45338;SDS011;31071;51.478;5.710;2024-02-14T07:32:36;22.33;;;14.23;;
45338;SDS011;31071;51.478;5.710;2024-02-14T07:35:02;22.60;;;14.15;;
45338;SDS011;31071;51.478;5.710;2024-02-14T07:37:37;27.52;;;14.63;;
45338;SDS011;31071;51.478;5.710;2024-02-14T07:40:03;22.77;;;14.82;;
45338;SDS011;31071;51.478;5.710;2024-02-14T07:42:30;24.02;;;15.13;;
45338;SDS011;31071;51.478;5.710;2024-02-14T07:47:35;23.50;;;15.10;;
45338;SDS011;31071;51.478;5.710;2024-02-14T07:50:01;25.67;;;15.02;;
45338;SDS011;31071;51.478;5.710;2024-02-14T07:52:27;23.92;;;14.85;;
45338;SDS011;31071;51.478;5.710;2024-02-14T07:54:53;22.48;;;15.45;;
45338;SDS011;31071;51.478;5.710;2024-02-14T07:57:21;24.98;;;14.85;;
45338;SDS011;31071;51.478;5.710;2024-02-14T07:59:48;23.45;;;14.95;;
45338;SDS011;31071;51.478;5.710;2024-02-14T08:02:14;23.45;;;15.02;;
45338;SDS011;31071;51.478;5.710;2024-02-14T08:04:39;26.83;;;15.85;;
45338;SDS011;31071;51.478;5.710;2024-02-14T08:07:09;24.80;;;15.00;;
45338;SDS011;31071;51.478;5.710;2024-02-14T08:09:38;27.13;;;14.95;;
45338;SDS011;31071;51.478;5.710;2024-02-14T08:12:15;26.73;;;14.70;;
45338;SDS011;31071;51.478;5.710;2024-02-14T08:14:41;23.15;;;15.18;;
45338;SDS011;31071;51.478;5.710;2024-02-14T08:17:07;23.58;;;14.02;;
45338;SDS011;31071;51.478;5.710;2024-02-14T08:19:32;24.38;;;14.15;;
45338;SDS011;31071;51.478;5.710;2024-02-14T08:22:00;25.98;;;15.00;;
45338;SDS011;31071;51.478;5.710;2024-02-14T08:24:26;23.23;;;14.20;;
45338;SDS011;31071;51.478;5.710;2024-02-14T08:26:53;25.55;;;14.57;;
45338;SDS011;31071;51.478;5.710;2024-02-14T08:29:19;24.35;;;14.52;;
45338;SDS011;31071;51.478;5.710;2024-02-14T08:31:48;30.27;;;14.32;;
45338;SDS011;31071;51.478;5.710;2024-02-14T08:34:14;23.08;;;14.63;;
45338;SDS011;31071;51.478;5.710;2024-02-14T08:36:46;24.60;;;13.65;;
45338;SDS011;31071;51.478;5.710;2024-02-14T08:39:17;19.08;;;13.40;;
45338;SDS011;31071;51.478;5.710;2024-02-14T08:41:55;23.08;;;13.63;;
45338;SDS011;31071;51.478;5.710;2024-02-14T08:44:28;23.10;;;13.05;;
45338;SDS011;31071;51.478;5.710;2024-02-14T08:46:59;19.90;;;13.18;;
45338;SDS011;31071;51.478;5.710;2024-02-14T08:50:00;24.05;;;12.82;;
45338;SDS011;31071;51.478;5.710;2024-02-14T08:52:28;19.05;;;11.68;;
45338;SDS011;31071;51.478;5.710;2024-02-14T08:54:56;21.60;;;13.10;;
45338;SDS011;31071;51.478;5.710;2024-02-14T08:57:28;19.88;;;11.88;;
45338;SDS011;31071;51.478;5.710;2024-02-14T08:59:56;17.08;;;11.95;;
45338;SDS011;31071;51.478;5.710;2024-02-14T09:02:22;20.05;;;12.52;;
45338;SDS011;31071;51.478;5.710;2024-02-14T09:04:48;23.20;;;12.07;;
45338;SDS011;31071;51.478;5.710;2024-02-14T09:07:14;17.98;;;11.80;;
45338;SDS011;31071;51.478;5.710;2024-02-14T09:09:41;16.92;;;11.10;;
45338;SDS011;31071;51.478;5.710;2024-02-14T09:12:07;18.48;;;10.40;;
45338;SDS011;31071;51.478;5.710;2024-02-14T09:14:32;22.73;;;10.93;;
45338;SDS011;31071;51.478;5.710;2024-02-14T09:16:59;15.95;;;9.75;;
45338;SDS011;31071;51.478;5.710;2024-02-14T09:19:24;15.77;;;9.55;;
45338;SDS011;31071;51.478;5.710;2024-02-14T09:22:01;19.10;;;10.10;;
45338;SDS011;31071;51.478;5.710;2024-02-14T09:24:31;16.52;;;10.43;;
45338;SDS011;31071;51.478;5.710;2024-02-14T09:29:53;16.40;;;9.88;;
45338;SDS011;31071;51.478;5.710;2024-02-14T09:32:21;13.43;;;9.52;;
45338;SDS011;31071;51.478;5.710;2024-02-14T09:37:34;18.45;;;9.68;;
45338;SDS011;31071;51.478;5.710;2024-02-14T09:40:03;20.08;;;11.40;;
45338;SDS011;31071;51.478;5.710;2024-02-14T09:42:43;17.77;;;10.75;;
45338;SDS011;31071;51.478;5.710;2024-02-14T09:45:35;17.05;;;10.02;;
45338;SDS011;31071;51.478;5.710;2024-02-14T09:48:02;12.27;;;9.40;;
45338;SDS011;31071;51.478;5.710;2024-02-14T09:50:28;15.73;;;9.45;;
45338;SDS011;31071;51.478;5.710;2024-02-14T09:53:03;18.05;;;9.88;;
45338;SDS011;31071;51.478;5.710;2024-02-14T09:55:30;18.40;;;9.70;;
45338;SDS011;31071;51.478;5.710;2024-02-14T09:57:56;14.63;;;9.70;;
45338;SDS011;31071;51.478;5.710;2024-02-14T10:00:23;16.23;;;8.82;;
45338;SDS011;31071;51.478;5.710;2024-02-14T10:02:55;16.80;;;8.77;;
45338;SDS011;31071;51.478;5.710;2024-02-14T10:05:31;16.05;;;9.10;;
45338;SDS011;31071;51.478;5.710;2024-02-14T10:08:11;14.00;;;7.88;;
45338;SDS011;31071;51.478;5.710;2024-02-14T10:10:47;13.23;;;8.32;;
45338;SDS011;31071;51.478;5.710;2024-02-14T10:13:12;17.63;;;8.88;;
45338;SDS011;31071;51.478;5.710;2024-02-14T10:15:39;14.05;;;8.43;;
45338;SDS011;31071;51.478;5.710;2024-02-14T10:18:04;16.75;;;8.85;;
45338;SDS011;31071;51.478;5.710;2024-02-14T10:20:30;15.35;;;8.95;;
45338;SDS011;31071;51.478;5.710;2024-02-14T10:23:02;12.40;;;8.80;;
45338;SDS011;31071;51.478;5.710;2024-02-14T10:25:29;15.95;;;9.43;;
45338;SDS011;31071;51.478;5.710;2024-02-14T10:27:56;11.45;;;8.07;;
45338;SDS011;31071;51.478;5.710;2024-02-14T10:30:22;14.80;;;8.82;;
45338;SDS011;31071;51.478;5.710;2024-02-14T10:32:48;13.13;;;8.05;;
45338;SDS011;31071;51.478;5.710;2024-02-14T10:35:17;14.50;;;8.15;;
45338;SDS011;31071;51.478;5.710;2024-02-14T10:37:48;11.93;;;8.52;;
45338;SDS011;31071;51.478;5.710;2024-02-14T10:40:14;11.98;;;8.48;;
45338;SDS011;31071;51.478;5.710;2024-02-14T10:42:40;15.13;;;9.05;;
45338;SDS011;31071;51.478;5.710;2024-02-14T10:45:07;15.52;;;8.57;;
45338;SDS011;31071;51.478;5.710;2024-02-14T10:47:38;18.90;;;8.32;;
45338;SDS011;31071;51.478;5.710;2024-02-14T10:50:07;12.10;;;8.65;;
45338;SDS011;31071;51.478;5.710;2024-02-14T10:52:35;11.98;;;8.38;;
45338;SDS011;31071;51.478;5.710;2024-02-14T10:55:02;10.77;;;8.18;;
45338;SDS011;31071;51.478;5.710;2024-02-14T10:57:29;13.85;;;8.13;;
45338;SDS011;31071;51.478;5.710;2024-02-14T10:59:57;9.73;;;7.95;;
45338;SDS011;31071;51.478;5.710;2024-02-14T11:02:30;14.27;;;8.43;;
45338;SDS011;31071;51.478;5.710;2024-02-14T11:04:57;11.85;;;8.07;;
45338;SDS011;31071;51.478;5.710;2024-02-14T11:07:23;11.15;;;7.88;;
45338;SDS011;31071;51.478;5.710;2024-02-14T11:13:15;10.95;;;6.72;;
45338;SDS011;31071;51.478;5.710;2024-02-14T11:15:40;10.82;;;7.40;;
45338;SDS011;31071;51.478;5.710;2024-02-14T11:18:14;8.30;;;6.90;;
45338;SDS011;31071;51.478;5.710;2024-02-14T11:23:22;8.20;;;6.57;;
45338;SDS011;31071;51.478;5.710;2024-02-14T11:26:02;11.00;;;6.53;;
45338;SDS011;31071;51.478;5.710;2024-02-14T11:28:29;8.80;;;6.10;;
45338;SDS011;31071;51.478;5.710;2024-02-14T11:31:08;9.05;;;6.40;;
45338;SDS011;31071;51.478;5.710;2024-02-14T11:33:35;7.75;;;6.30;;
45338;SDS011;31071;51.478;5.710;2024-02-14T11:36:07;10.00;;;6.18;;
45338;SDS011;31071;51.478;5.710;2024-02-14T11:38:36;9.15;;;5.93;;
45338;SDS011;31071;51.478;5.710;2024-02-14T11:41:11;10.63;;;6.47;;
45338;SDS011;31071;51.478;5.710;2024-02-14T11:43:37;8.82;;;6.57;;
45338;SDS011;31071;51.478;5.710;2024-02-14T11:46:04;8.30;;;6.57;;
45338;SDS011;31071;51.478;5.710;2024-02-14T11:48:30;8.90;;;6.55;;
45338;SDS011;31071;51.478;5.710;2024-02-14T11:51:01;8.48;;;6.55;;
45338;SDS011;31071;51.478;5.710;2024-02-14T11:53:37;9.55;;;6.47;;
45338;SDS011;31071;51.478;5.710;2024-02-14T11:56:07;8.23;;;6.60;;
45338;SDS011;31071;51.478;5.710;2024-02-14T11:58:33;8.77;;;6.70;;
45338;SDS011;31071;51.478;5.710;2024-02-14T12:00:59;9.23;;;6.95;;
45338;SDS011;31071;51.478;5.710;2024-02-14T12:03:34;11.93;;;7.22;;
45338;SDS011;31071;51.478;5.710;2024-02-14T12:06:09;10.25;;;7.47;;
45338;SDS011;31071;51.478;5.710;2024-02-14T12:08:36;9.93;;;8.07;;
45338;SDS011;31071;51.478;5.710;2024-02-14T12:11:09;10.13;;;7.85;;
45338;SDS011;31071;51.478;5.710;2024-02-14T12:13:35;9.00;;;7.80;;
45338;SDS011;31071;51.478;5.710;2024-02-14T12:16:03;8.65;;;7.25;;
45338;SDS011;31071;51.478;5.710;2024-02-14T12:18:33;8.68;;;7.30;;
45338;SDS011;31071;51.478;5.710;2024-02-14T12:21:13;11.75;;;6.93;;
45338;SDS011;31071;51.478;5.710;2024-02-14T12:23:57;8.48;;;6.85;;
45338;SDS011;31071;51.478;5.710;2024-02-14T12:26:24;8.10;;;6.50;;
45338;SDS011;31071;51.478;5.710;2024-02-14T12:28:52;9.65;;;6.20;;
45338;SDS011;31071;51.478;5.710;2024-02-14T12:31:22;9.25;;;6.78;;
45338;SDS011;31071;51.478;5.710;2024-02-14T12:33:48;6.35;;;5.65;;
45338;SDS011;31071;51.478;5.710;2024-02-14T12:36:20;7.93;;;5.40;;
45338;SDS011;31071;51.478;5.710;2024-02-14T12:38:49;7.20;;;5.63;;
45338;SDS011;31071;51.478;5.710;2024-02-14T12:41:27;7.63;;;5.70;;
45338;SDS011;31071;51.478;5.710;2024-02-14T12:43:55;6.72;;;5.57;;
45338;SDS011;31071;51.478;5.710;2024-02-14T12:46:27;6.55;;;5.70;;
45338;SDS011;31071;51.478;5.710;2024-02-14T12:48:53;6.88;;;5.82;;
45338;SDS011;31071;51.478;5.710;2024-02-14T12:51:23;8.50;;;5.40;;
45338;SDS011;31071;51.478;5.710;2024-02-14T12:53:53;8.80;;;5.80;;
45338;SDS011;31071;51.478;5.710;2024-02-14T12:56:19;6.63;;;5.38;;
45338;SDS011;31071;51.478;5.710;2024-02-14T12:58:45;6.28;;;5.68;;
45338;SDS011;31071;51.478;5.710;2024-02-14T13:01:16;5.82;;;5.18;;
45338;SDS011;31071;51.478;5.710;2024-02-14T13:04:30;7.25;;;5.95;;
45338;SDS011;31071;51.478;5.710;2024-02-14T13:07:03;7.32;;;5.45;;
45338;SDS011;31071;51.478;5.710;2024-02-14T13:09:36;7.07;;;5.18;;
45338;SDS011;31071;51.478;5.710;2024-02-14T13:12:03;7.63;;;5.32;;
45338;SDS011;31071;51.478;5.710;2024-02-14T13:14:31;6.75;;;5.03;;
45338;SDS011;31071;51.478;5.710;2024-02-14T13:16:58;6.35;;;5.57;;
45338;SDS011;31071;51.478;5.710;2024-02-14T13:22:14;7.55;;;5.53;;
45338;SDS011;31071;51.478;5.710;2024-02-14T13:24:40;8.30;;;5.60;;
45338;SDS011;31071;51.478;5.710;2024-02-14T13:27:06;6.90;;;4.78;;
45338;SDS011;31071;51.478;5.710;2024-02-14T13:29:32;9.50;;;5.22;;
45338;SDS011;31071;51.478;5.710;2024-02-14T13:31:58;6.45;;;4.90;;
45338;SDS011;31071;51.478;5.710;2024-02-14T13:34:25;5.28;;;4.40;;
45338;SDS011;31071;51.478;5.710;2024-02-14T13:36:51;5.60;;;4.72;;
45338;SDS011;31071;51.478;5.710;2024-02-14T13:39:17;5.10;;;4.40;;
45338;SDS011;31071;51.478;5.710;2024-02-14T13:41:43;4.45;;;3.95;;
45338;SDS011;31071;51.478;5.710;2024-02-14T13:44:10;4.45;;;3.60;;
45338;SDS011;31071;51.478;5.710;2024-02-14T13:46:36;5.70;;;3.90;;
45338;SDS011;31071;51.478;5.710;2024-02-14T13:49:02;4.93;;;3.97;;
45338;SDS011;31071;51.478;5.710;2024-02-14T13:51:28;4.45;;;3.75;;
45338;SDS011;31071;51.478;5.710;2024-02-14T13:53:53;5.30;;;3.80;;
45338;SDS011;31071;51.478;5.710;2024-02-14T13:56:20;4.78;;;3.80;;
45338;SDS011;31071;51.478;5.710;2024-02-14T13:58:48;4.57;;;3.78;;
45338;SDS011;31071;51.478;5.710;2024-02-14T14:01:14;6.28;;;3.72;;
45338;SDS011;31071;51.478;5.710;2024-02-14T14:03:40;3.92;;;3.63;;
45338;SDS011;31071;51.478;5.710;2024-02-14T14:06:06;5.97;;;3.65;;
45338;SDS011;31071;51.478;5.710;2024-02-14T14:08:35;4.05;;;3.65;;
45338;SDS011;31071;51.478;5.710;2024-02-14T14:11:04;5.32;;;3.40;;
45338;SDS011;31071;51.478;5.710;2024-02-14T14:13:30;4.80;;;4.00;;
45338;SDS011;31071;51.478;5.710;2024-02-14T14:15:58;6.22;;;3.80;;
45338;SDS011;31071;51.478;5.710;2024-02-14T14:18:51;5.80;;;4.40;;
45338;SDS011;31071;51.478;5.710;2024-02-14T14:21:16;5.00;;;4.50;;
45338;SDS011;31071;51.478;5.710;2024-02-14T14:23:42;5.65;;;4.45;;
45338;SDS011;31071;51.478;5.710;2024-02-14T14:26:08;8.10;;;4.97;;
45338;SDS011;31071;51.478;5.710;2024-02-14T14:28:34;5.50;;;4.95;;
45338;SDS011;31071;51.478;5.710;2024-02-14T14:31:00;7.22;;;5.63;;
45338;SDS011;31071;51.478;5.710;2024-02-14T14:33:27;9.68;;;6.32;;
45338;SDS011;31071;51.478;5.710;2024-02-14T14:35:53;8.13;;;5.80;;
45338;SDS011;31071;51.478;5.710;2024-02-14T14:38:19;7.90;;;6.13;;
45338;SDS011;31071;51.478;5.710;2024-02-14T14:40:49;9.70;;;6.13;;
45338;SDS011;31071;51.478;5.710;2024-02-14T14:46:20;6.85;;;5.93;;
45338;SDS011;31071;51.478;5.710;2024-02-14T14:48:46;7.72;;;6.20;;
45338;SDS011;31071;51.478;5.710;2024-02-14T14:51:57;8.05;;;6.25;;
45338;SDS011;31071;51.478;5.710;2024-02-14T14:54:22;8.52;;;6.25;;
45338;SDS011;31071;51.478;5.710;2024-02-14T14:56:53;7.03;;;6.10;;
45338;SDS011;31071;51.478;5.710;2024-02-14T14:59:19;7.25;;;5.70;;
45338;SDS011;31071;51.478;5.710;2024-02-14T15:01:45;7.50;;;5.88;;
45338;SDS011;31071;51.478;5.710;2024-02-14T15:04:14;8.52;;;6.38;;
45338;SDS011;31071;51.478;5.710;2024-02-14T15:06:40;9.60;;;6.78;;
45338;SDS011;31071;51.478;5.710;2024-02-14T15:09:06;9.35;;;6.70;;